Pagina principale
METAR-TAF:

METAR-TAF

Aeroporti :

Aeroporto di Bangui-M'Poko

Bangui, Repubblica Centrafricana

latitudine: 04-24N, longitudine: 018-31E, altezza: 365 m

Osservazione

Il bollettino è stato emesso 1 ora e 22 minuti fa, alle 03:00 UTC
Vento calmo
Temperature 22°C
Umidità 94%
Pressione 1010 hPa
Visibilità: 6000 m
Poco nuvoloso ad un'altezza di 600 ft

METAR: FEFF 070300Z 00000KT 6000 FEW006 22/21 Q1010 NOSIG

Ora: 05:22 (04:22 UTC)

Previsione

Il bollettino è stato emesso 5 ore e 22 minuti fa, alle 23:00 UTC
Previsione valida dal 07 alle 00 UTC al 08 alle 06 UTC
Vento 2 kt da direzioni variabili
Visibilità: 6000 m
Probabilità 40%
dal 07 alle 03 UTC al 07 alle 06 UTC
Visibilità: 3000 m
foschia
Evoluzione graduale
dal 07 alle 14 UTC al 07 alle 16 UTC
Visibilità: 3000 m

TAF: FEFF 062300Z 0700/0806 VRB02KT 6000 NSC PROB40 0703/0706 3000 BR BECMG 0714/0716 3000 HZFU

Osservazioni e previsioni meteorologiche di più di 4000 aeroporti (messaggi METAR e TAF).

Le stazioni disponibili sono rappresentate dai dischi gialli e rossi sulla carta.

Puntare il mouse per vedere il nome della stazione.

Clicca sopra per visualizzare le osservazioni e previsioni meteorologiche.

Per cambiare la mappa : fare clic sui pulsanti verdi con una croce nera per ingrandire, il pulsante verde con un trattino per diminuire, o sulla freccia verde per le mappe adiacenti.


METAR-TAF: